Historyczne dane pomiarowe

Dodano dane terminowe – wersja testowa.

Dane z okresu 1951-2019

Wersja bazy: 1.34 [2019-03-16, lista zmian], aktualizacja planowana na 2019-04-15

Dane meteo z obszaru Polski uzyskane na podstawie danych udostępnionych przez Instytut Meteorologii i Gospodarki Wodnej – Państwowy Instytut Badawczy.

 

Wybierz Datę:    

       

TemperaturaWilgotnośćWiatrCiśnienieOpadyŚniegCzas trwania zjawisk
 Stacja t tx tn tng RH VA  wxwx mslp ppp RRR   cm mm wxwxwxwxwxwxwx
2010-06-13 13.1 17.8 9.6 7.2 69.0 10.2- 3.6--1002.7- 0.0--x- 8.3-------
2010-06-14 14.8 20.4 9.1 6.6 61.0 10.0- 1.6--1004.0- 0.0--x- 4.6-------
2010-06-15 15.2 20.1 7.9 4.7 65.0 11.1- 2.4--1008.1- 0.0--x- 5.7-------
2010-06-16 15.1 21.5 6.2 3.9 57.0 9.3- 2.5--1010.3- 0.0--x- 15.3-------
2010-06-17 18.3 24.6 11.8 9.6 48.0 9.5- 2.9--1007.1- 0.0--x- 15.6-------
2010-06-18 18.1 25.5 11.2 9.8 53.0 10.7- 3.4-- 996.1- 0.0--x- 13.4-------
2010-06-19 12.9 17.8 9.1 6.7 59.0 8.7- 4.1-- 992.8- 0.0--x- 4.0-------
2010-06-20 13.3 18.3 7.4 5.2 62.0 9.3- 2.7-- 998.6- 0.0--x- 6.9-------
2010-06-21 13.2 18.7 8.3 6.1 81.0 12.2- 3.0--1004.9- 1.5--x- 6.9-------
2010-06-22 15.4 22.9 8.4 5.8 66.0 10.9- 2.3--1008.8- 0.0--x- 10.0-------
2010-06-23 16.2 22.4 9.3 6.1 61.0 10.9- 2.0--1009.3- 0.0--x- 5.0-------
2010-06-24 18.6 24.5 11.1 8.4 63.0 12.8- 2.4--1004.8- 0.0--x- 10.8-------
2010-06-25 20.2 26.8 13.5 11.3 61.0 13.8- 1.8--1002.1- 0.0--x- 9.6-------
2010-06-26 19.3 24.5 13.4 11.6 61.0 13.3- 2.4--1004.9- 0.0--x- 9.8-------
2010-06-27 19.1 25.8 12.0 10.2 54.0 11.1- 2.1--1009.1- 0.0--x- 15.7-------
2010-06-28 22.5 29.6 13.8 11.4 45.0 11.4- 2.4--1007.9- 0.0--x- 15.5-------
2010-06-29 24.3 30.3 17.4 15.4 40.0 11.6- 2.4--1005.4- 0.0--x- 14.0-------
2010-06-30 23.1 28.4 18.1 15.7 53.0 14.6- 3.1--1005.3- 0.0--x- 13.8-------
2010-07-01 22.6 28.4 16.5 16.0 58.0 15.5- 2.0--1005.1- 0.0--x- 8.7-------
2010-07-02 24.9 30.9 18.8 17.6 45.0 13.7- 2.6--1005.7- 0.0--x- 15.0-------
2010-07-03 26.1 31.8 20.0 17.3 41.0 13.5- 2.6--1005.9- 0.0--x- 15.0-------
2010-07-04 25.1 31.6 18.7 16.3 36.0 10.7- 2.5--1004.7- 0.4--x- 13.2-------
2010-07-05 23.0 30.3 17.3 17.1 64.0 17.2- 2.2--1003.7- 8.1--x- 6.1-------
2010-07-06 17.9 22.1 12.5 10.4 70.0 14.1- 3.7--1006.2- 0.0--x- 5.2-------
2010-07-07 17.6 23.4 11.6 9.8 58.0 11.1- 2.8--1010.1- 0.0--x- 13.5-------
2010-07-08 21.9 29.1 14.0 11.1 45.0 11.2- 1.9--1009.3- 0.0--x- 15.1-------
2010-07-09 25.9 32.8 16.8 14.9 41.0 12.8- 2.3--1008.0- 0.0--x- 15.4-------
2010-07-10 28.8 36.7 21.2 19.7 38.0 14.2- 2.5--1006.8- 0.0--x- 14.7-------
2010-07-11 29.8 36.6 22.3 21.7 36.0 14.4- 2.9--1004.6- 0.0--x- 15.0-------
2010-07-12 30.1 37.0 23.7 22.8 39.0 15.8- 2.9--1000.8- 0.0--x- 14.6-------
97.2 ms

 

Źródłem pochodzenia danych jest Instytut Meteorologii i Gospodarki Wodnej – Państwowy Instytut Badawczy. Dane Instytutu Meteorologii i Gospodarki Wodnej – Państwowego Instytutu Badawczego zostały przetworzone.

Dane źródłowe można odnaleźć na stronie https://dane.imgw.pl